createdAt,value
2018-05-13T00:00:05.903Z,0.00
2018-05-13T00:01:05.830Z,0.00
2018-05-13T00:02:05.754Z,0.00
2018-05-13T00:03:05.684Z,0.00
2018-05-13T00:04:05.606Z,0.00
2018-05-13T00:05:05.527Z,0.00
2018-05-13T00:06:06.459Z,0.00
2018-05-13T00:07:05.388Z,0.00
2018-05-13T00:08:05.304Z,0.00
2018-05-13T00:09:05.234Z,0.00
2018-05-13T00:10:05.157Z,0.00
2018-05-13T00:11:05.101Z,0.00
2018-05-13T00:12:05.013Z,0.00
2018-05-13T00:13:04.948Z,0.00
2018-05-13T00:14:04.867Z,0.00
2018-05-13T00:15:04.783Z,0.00
2018-05-13T00:16:04.715Z,0.00
2018-05-13T00:17:04.641Z,0.00
2018-05-13T00:18:04.562Z,0.00
2018-05-13T00:19:04.493Z,0.00
2018-05-13T00:20:04.418Z,0.00
2018-05-13T00:21:04.337Z,0.00
2018-05-13T00:22:04.268Z,0.00
2018-05-13T00:23:04.194Z,0.00
2018-05-13T00:24:04.114Z,0.00
2018-05-13T00:25:04.042Z,0.00
2018-05-13T00:26:03.981Z,0.00
2018-05-13T00:27:03.895Z,0.00
2018-05-13T00:28:03.823Z,0.00
2018-05-13T00:29:03.751Z,0.00
2018-05-13T00:30:03.682Z,0.00
2018-05-13T00:31:03.594Z,0.00
2018-05-13T00:32:03.522Z,0.00
2018-05-13T00:33:03.457Z,0.00
2018-05-13T00:34:03.374Z,0.00
2018-05-13T00:35:03.305Z,0.00
2018-05-13T00:36:03.224Z,0.00
2018-05-13T00:37:03.154Z,0.00
2018-05-13T00:38:03.079Z,0.00
2018-05-13T00:39:03.018Z,0.00
2018-05-13T00:40:02.928Z,0.00
2018-05-13T00:41:02.855Z,0.00
2018-05-13T00:42:02.786Z,0.00
2018-05-13T00:43:02.710Z,0.00
2018-05-13T00:44:02.629Z,0.00
2018-05-13T00:45:02.568Z,0.00
2018-05-13T00:46:02.480Z,0.00
2018-05-13T00:47:02.408Z,0.00
2018-05-13T00:48:02.346Z,0.00
2018-05-13T00:49:02.260Z,0.00
2018-05-13T00:50:02.185Z,0.00
2018-05-13T00:51:02.118Z,0.00
2018-05-13T00:52:02.035Z,0.00
2018-05-13T00:53:01.961Z,0.00
2018-05-13T00:54:02.894Z,0.00
2018-05-13T00:55:01.813Z,0.00
2018-05-13T00:56:01.745Z,0.00
2018-05-13T00:57:01.667Z,0.00
2018-05-13T00:58:01.590Z,0.00
2018-05-13T00:59:01.517Z,0.00
2018-05-13T01:00:01.450Z,0.00
2018-05-13T01:01:01.368Z,0.00
2018-05-13T01:02:01.288Z,0.00
2018-05-13T01:03:01.224Z,0.00
2018-05-13T01:04:01.150Z,0.00
2018-05-13T01:05:01.067Z,0.00
2018-05-13T01:06:00.996Z,0.00
2018-05-13T01:07:00.915Z,0.00
2018-05-13T01:08:00.841Z,0.00
2018-05-13T01:09:00.782Z,0.00
2018-05-13T01:10:00.693Z,0.00
2018-05-13T01:11:00.618Z,0.00
2018-05-13T01:12:00.559Z,0.00
2018-05-13T01:13:00.469Z,0.00
2018-05-13T01:14:00.398Z,0.00
2018-05-13T01:15:00.329Z,0.00
2018-05-13T01:16:00.242Z,0.00
2018-05-13T01:17:00.168Z,0.00
2018-05-13T01:18:00.106Z,0.00
2018-05-13T01:19:00.018Z,0.00
2018-05-13T01:19:59.941Z,0.00
2018-05-13T01:20:59.879Z,0.00
2018-05-13T01:21:59.797Z,0.00
2018-05-13T01:22:59.722Z,0.00
2018-05-13T01:23:59.652Z,0.00
2018-05-13T01:24:59.576Z,0.00
2018-05-13T01:25:59.506Z,0.00
2018-05-13T01:26:59.430Z,0.00
2018-05-13T01:27:59.357Z,0.00
2018-05-13T01:28:59.359Z,0.00
2018-05-13T01:29:59.206Z,0.00
2018-05-13T01:30:59.129Z,0.00
2018-05-13T01:31:59.051Z,0.00
2018-05-13T01:32:58.981Z,0.00
2018-05-13T01:33:58.900Z,0.00
2018-05-13T01:34:58.828Z,0.00
2018-05-13T01:35:58.763Z,0.00
2018-05-13T01:36:58.677Z,0.00
2018-05-13T01:37:58.596Z,0.00
2018-05-13T01:38:58.530Z,0.00
2018-05-13T01:39:58.461Z,0.00
2018-05-13T01:40:58.373Z,0.00
2018-05-13T01:41:58.314Z,0.00
2018-05-13T01:42:58.230Z,0.00
2018-05-13T01:43:58.150Z,0.00
2018-05-13T01:44:58.081Z,0.00
2018-05-13T01:45:58.006Z,0.00
2018-05-13T01:46:57.930Z,0.00
2018-05-13T01:47:57.855Z,0.00
2018-05-13T01:48:57.781Z,0.00
2018-05-13T01:49:57.699Z,0.00
2018-05-13T01:50:57.633Z,0.00
2018-05-13T01:51:57.552Z,0.00
2018-05-13T01:52:57.479Z,0.00
2018-05-13T01:53:57.407Z,0.00
2018-05-13T01:54:57.329Z,0.00
2018-05-13T01:55:57.254Z,0.00
2018-05-13T01:56:57.194Z,0.00
2018-05-13T01:57:57.104Z,0.00
2018-05-13T01:58:57.027Z,0.00
2018-05-13T01:59:56.958Z,0.00
2018-05-13T02:00:56.877Z,0.00
2018-05-13T02:01:56.802Z,0.00
2018-05-13T02:02:56.734Z,0.00
2018-05-13T02:03:56.654Z,0.00
2018-05-13T02:04:56.579Z,0.00
2018-05-13T02:05:56.508Z,0.00
2018-05-13T02:06:56.429Z,0.00
2018-05-13T02:07:56.351Z,0.00
2018-05-13T02:08:56.283Z,0.00
2018-05-13T02:09:56.221Z,0.00
2018-05-13T02:10:56.133Z,0.00
2018-05-13T02:11:56.059Z,0.00
2018-05-13T02:12:55.973Z,0.00
2018-05-13T02:13:55.901Z,0.00
2018-05-13T02:14:55.840Z,0.00
2018-05-13T02:15:55.753Z,0.00
2018-05-13T02:16:55.678Z,0.00
2018-05-13T02:17:55.609Z,0.00
2018-05-13T02:18:55.525Z,0.00
2018-05-13T02:19:55.457Z,0.00
2018-05-13T02:20:55.385Z,0.00
2018-05-13T02:21:55.304Z,0.00
2018-05-13T02:22:55.230Z,0.00
2018-05-13T02:23:55.156Z,0.00
2018-05-13T02:24:55.076Z,0.00
2018-05-13T02:25:54.999Z,0.00
2018-05-13T02:26:54.932Z,0.00
2018-05-13T02:27:54.845Z,0.00
2018-05-13T02:28:54.772Z,0.00
2018-05-13T02:29:54.707Z,0.00
2018-05-13T02:30:54.623Z,0.00
2018-05-13T02:31:54.558Z,0.00
2018-05-13T02:32:54.476Z,0.00
2018-05-13T02:33:54.411Z,0.00
2018-05-13T02:34:54.333Z,0.00
2018-05-13T02:35:54.251Z,0.00
2018-05-13T02:36:54.187Z,0.00
2018-05-13T02:37:54.106Z,0.00
2018-05-13T02:38:54.036Z,0.00
2018-05-13T02:39:53.955Z,0.00
2018-05-13T02:40:53.879Z,0.00
2018-05-13T02:41:53.812Z,0.00
2018-05-13T02:42:53.731Z,0.00
2018-05-13T02:43:53.644Z,0.00
2018-05-13T02:44:53.586Z,0.00
2018-05-13T02:45:53.493Z,0.00
2018-05-13T02:46:53.424Z,0.00
2018-05-13T02:47:53.357Z,0.00
2018-05-13T02:48:53.271Z,0.00
2018-05-13T02:49:53.193Z,0.00
2018-05-13T02:50:53.126Z,0.00
2018-05-13T02:51:53.045Z,0.00
2018-05-13T02:52:52.975Z,0.00
2018-05-13T02:53:52.889Z,0.00
2018-05-13T02:54:52.830Z,0.00
2018-05-13T02:55:52.756Z,0.00
2018-05-13T02:56:52.670Z,0.00
2018-05-13T02:57:52.595Z,0.00
2018-05-13T02:58:52.529Z,0.00
2018-05-13T02:59:52.442Z,0.00
2018-05-13T03:00:52.374Z,0.00
2018-05-13T03:01:52.294Z,0.00
2018-05-13T03:02:52.214Z,0.00
2018-05-13T03:03:52.150Z,0.00
2018-05-13T03:04:52.079Z,0.00
2018-05-13T03:05:51.989Z,0.00
2018-05-13T03:06:51.919Z,0.00
2018-05-13T03:07:51.848Z,0.00
2018-05-13T03:08:51.762Z,0.00
2018-05-13T03:09:51.704Z,0.00
2018-05-13T03:10:51.623Z,0.00
2018-05-13T03:11:51.535Z,0.00
2018-05-13T03:12:51.468Z,4.00
2018-05-13T03:13:51.399Z,0.00
2018-05-13T03:14:51.310Z,0.00
2018-05-13T03:15:51.242Z,0.00
2018-05-13T03:16:51.164Z,4.00
2018-05-13T03:17:51.090Z,0.00
2018-05-13T03:18:51.031Z,4.00
2018-05-13T03:19:50.934Z,0.00
2018-05-13T03:20:50.857Z,4.00
2018-05-13T03:21:50.797Z,4.00
2018-05-13T03:22:50.706Z,0.00
2018-05-13T03:23:50.655Z,4.00
2018-05-13T03:24:50.555Z,4.00
2018-05-13T03:25:50.483Z,4.00
2018-05-13T03:26:50.406Z,4.00
2018-05-13T03:27:50.340Z,8.00
2018-05-13T03:28:50.262Z,8.00
2018-05-13T03:29:50.231Z,8.00
2018-05-13T03:30:50.192Z,8.00
2018-05-13T03:31:50.094Z,8.00
2018-05-13T03:32:49.954Z,12.00
2018-05-13T03:33:49.900Z,12.00
2018-05-13T03:34:49.808Z,12.00
2018-05-13T03:35:49.724Z,12.00
2018-05-13T03:36:49.718Z,16.00
2018-05-13T03:37:49.630Z,12.00
2018-05-13T03:38:49.508Z,16.00
2018-05-13T03:39:49.533Z,20.00
2018-05-13T03:40:49.437Z,20.00
2018-05-13T03:41:49.273Z,20.00
2018-05-13T03:42:49.248Z,24.00
2018-05-13T03:43:49.151Z,24.00
2018-05-13T03:44:49.048Z,28.00
2018-05-13T03:45:49.062Z,28.00
2018-05-13T03:46:48.904Z,32.00
2018-05-13T03:47:48.824Z,32.00
2018-05-13T03:48:48.773Z,36.00
2018-05-13T03:49:48.780Z,36.00
2018-05-13T03:50:48.597Z,40.00
2018-05-13T03:51:48.589Z,44.00
2018-05-13T03:52:48.496Z,44.00
2018-05-13T03:53:48.366Z,48.00
2018-05-13T03:54:48.403Z,52.00
2018-05-13T03:55:48.307Z,56.00
2018-05-13T03:56:48.137Z,56.00
2018-05-13T03:57:48.119Z,60.00
2018-05-13T03:58:48.022Z,60.00
2018-05-13T03:59:47.911Z,68.00
2018-05-13T04:00:47.939Z,72.00
2018-05-13T04:01:47.767Z,76.00
2018-05-13T04:02:47.689Z,76.00
2018-05-13T04:03:47.645Z,80.00
2018-05-13T04:04:47.544Z,88.00
2018-05-13T04:05:47.457Z,88.00
2018-05-13T04:06:47.390Z,96.00
2018-05-13T04:07:47.323Z,96.00
2018-05-13T04:08:47.231Z,104.00
2018-05-13T04:09:47.176Z,108.00
2018-05-13T04:10:47.081Z,108.00
2018-05-13T04:11:47.013Z,116.00
2018-05-13T04:12:46.925Z,120.00
2018-05-13T04:13:46.855Z,120.00
2018-05-13T04:14:46.779Z,128.00
2018-05-13T04:15:46.710Z,128.00
2018-05-13T04:16:46.624Z,132.00
2018-05-13T04:17:46.611Z,136.00
2018-05-13T04:18:46.479Z,136.00
2018-05-13T04:19:46.398Z,144.00
2018-05-13T04:20:46.320Z,144.00
2018-05-13T04:21:46.329Z,148.00
2018-05-13T04:22:46.169Z,148.00
2018-05-13T04:23:46.098Z,152.00
2018-05-13T04:24:46.029Z,152.00
2018-05-13T04:25:45.943Z,156.00
2018-05-13T04:26:45.872Z,160.00
2018-05-13T04:27:46.757Z,164.00
2018-05-13T04:28:45.719Z,168.00
2018-05-13T04:29:45.649Z,172.00
2018-05-13T04:30:45.676Z,180.00
2018-05-13T04:31:45.492Z,184.00
2018-05-13T04:32:45.483Z,192.00
2018-05-13T04:33:45.342Z,196.00
2018-05-13T04:34:45.267Z,196.00
2018-05-13T04:35:45.189Z,200.00
2018-05-13T04:36:45.205Z,204.00
2018-05-13T04:37:45.324Z,208.00
2018-05-13T04:38:44.959Z,212.00
2018-05-13T04:39:45.466Z,216.00
2018-05-13T04:40:44.814Z,220.00
2018-05-13T04:41:44.744Z,224.00
2018-05-13T04:42:44.670Z,224.00
2018-05-13T04:43:44.584Z,228.00
2018-05-13T04:44:44.515Z,232.00
2018-05-13T04:45:44.441Z,236.00
2018-05-13T04:46:44.360Z,236.00
2018-05-13T04:47:44.293Z,236.00
2018-05-13T04:48:44.204Z,240.00
2018-05-13T04:49:44.133Z,240.00
2018-05-13T04:50:44.059Z,244.00
2018-05-13T04:51:43.991Z,244.00
2018-05-13T04:52:43.907Z,248.00
2018-05-13T04:53:43.827Z,240.00
2018-05-13T04:54:43.765Z,244.00
2018-05-13T04:55:43.680Z,240.00
2018-05-13T04:56:43.611Z,236.00
2018-05-13T04:57:43.601Z,236.00
2018-05-13T04:58:43.466Z,240.00
2018-05-13T04:59:43.411Z,236.00
2018-05-13T05:00:43.304Z,236.00
2018-05-13T05:01:43.232Z,236.00
2018-05-13T05:02:43.152Z,240.00
2018-05-13T05:03:43.087Z,236.00
2018-05-13T05:04:43.014Z,240.00
2018-05-13T05:05:42.927Z,244.00
2018-05-13T05:06:42.865Z,244.00
2018-05-13T05:07:42.785Z,244.00
2018-05-13T05:08:42.703Z,248.00
2018-05-13T05:09:42.658Z,248.00
2018-05-13T05:10:42.563Z,248.00
2018-05-13T05:11:42.480Z,252.00
2018-05-13T05:12:42.409Z,252.00
2018-05-13T05:13:42.340Z,252.00
2018-05-13T05:14:42.261Z,256.00
2018-05-13T05:15:42.185Z,264.00
2018-05-13T05:16:42.114Z,264.00
2018-05-13T05:17:42.025Z,268.00
2018-05-13T05:18:41.999Z,268.00
2018-05-13T05:19:41.911Z,268.00
2018-05-13T05:20:41.803Z,276.00
2018-05-13T05:21:41.816Z,280.00
2018-05-13T05:22:41.652Z,280.00
2018-05-13T05:23:41.626Z,288.00
2018-05-13T05:24:41.501Z,292.00
2018-05-13T05:25:41.425Z,300.00
2018-05-13T05:26:41.358Z,304.00
2018-05-13T05:27:41.345Z,312.00
2018-05-13T05:28:41.249Z,316.00
2018-05-13T05:29:41.127Z,324.00
2018-05-13T05:30:41.067Z,324.00
2018-05-13T05:31:41.063Z,328.00
2018-05-13T05:32:40.904Z,328.00
2018-05-13T05:33:40.872Z,332.00
2018-05-13T05:34:40.882Z,332.00
2018-05-13T05:35:40.717Z,336.00
2018-05-13T05:36:40.604Z,340.00
2018-05-13T05:37:40.593Z,344.00
2018-05-13T05:38:40.453Z,348.00
2018-05-13T05:39:40.503Z,352.00
2018-05-13T05:40:40.407Z,360.00
2018-05-13T05:41:40.234Z,368.00
2018-05-13T05:42:40.219Z,372.00
2018-05-13T05:43:40.121Z,380.00
2018-05-13T05:44:40.011Z,384.00
2018-05-13T05:45:40.033Z,388.00
2018-05-13T05:46:44.644Z,396.00
2018-05-13T05:47:39.788Z,400.00
2018-05-13T05:48:44.662Z,404.00
2018-05-13T05:49:44.667Z,404.00
2018-05-13T05:50:39.567Z,412.00
2018-05-13T05:51:40.590Z,408.00
2018-05-13T05:52:39.467Z,412.00
2018-05-13T05:53:39.339Z,412.00
2018-05-13T05:54:39.383Z,416.00
2018-05-13T05:55:39.279Z,416.00
2018-05-13T05:56:39.114Z,420.00
2018-05-13T05:57:39.579Z,424.00
2018-05-13T05:58:38.969Z,424.00
2018-05-13T05:59:38.896Z,428.00
2018-05-13T06:00:38.818Z,428.00
2018-05-13T06:01:38.750Z,432.00
2018-05-13T06:02:38.672Z,428.00
2018-05-13T06:03:38.718Z,432.00
2018-05-13T06:04:38.635Z,432.00
2018-05-13T06:05:38.449Z,436.00
2018-05-13T06:06:38.450Z,436.00
2018-05-13T06:07:38.339Z,440.00
2018-05-13T06:08:38.232Z,440.00
2018-05-13T06:09:38.254Z,444.00
2018-05-13T06:10:38.152Z,448.00
2018-05-13T06:11:38.010Z,448.00
2018-05-13T06:12:37.972Z,452.00
2018-05-13T06:13:37.970Z,452.00
2018-05-13T06:14:37.788Z,456.00
2018-05-13T06:15:37.777Z,456.00
2018-05-13T06:16:37.719Z,460.00
2018-05-13T06:17:37.561Z,468.00
2018-05-13T06:18:37.590Z,472.00
2018-05-13T06:19:37.553Z,476.00
2018-05-13T06:20:37.343Z,476.00
2018-05-13T06:21:37.310Z,480.00
2018-05-13T06:22:37.354Z,480.00
2018-05-13T06:23:37.121Z,480.00
2018-05-13T06:24:37.058Z,480.00
2018-05-13T06:25:37.022Z,488.00
2018-05-13T06:26:36.903Z,496.00
2018-05-13T06:27:36.935Z,500.00
2018-05-13T06:28:36.835Z,504.00
2018-05-13T06:29:36.684Z,500.00
2018-05-13T06:30:36.646Z,520.00
2018-05-13T06:31:36.656Z,520.00
2018-05-13T06:32:36.471Z,524.00
2018-05-13T06:33:36.400Z,524.00
2018-05-13T06:34:36.366Z,532.00
2018-05-13T06:35:36.248Z,536.00
2018-05-13T06:36:36.279Z,536.00
2018-05-13T06:37:36.196Z,544.00
2018-05-13T06:38:36.022Z,544.00
2018-05-13T06:39:36.076Z,556.00
2018-05-13T06:40:35.892Z,560.00
2018-05-13T06:41:35.800Z,568.00
2018-05-13T06:42:35.802Z,576.00
2018-05-13T06:43:35.705Z,580.00
2018-05-13T06:44:35.582Z,592.00
2018-05-13T06:45:35.621Z,608.00
2018-05-13T06:46:35.432Z,620.00
2018-05-13T06:47:35.364Z,624.00
2018-05-13T06:48:35.345Z,636.00
2018-05-13T06:49:35.215Z,644.00
2018-05-13T06:50:35.150Z,648.00
2018-05-13T06:51:35.161Z,652.00
2018-05-13T06:52:35.003Z,660.00
2018-05-13T06:53:34.925Z,664.00
2018-05-13T06:54:34.979Z,672.00
2018-05-13T06:55:34.779Z,680.00
2018-05-13T06:56:34.707Z,688.00
2018-05-13T06:57:34.694Z,692.00
2018-05-13T06:58:34.562Z,708.00
2018-05-13T06:59:34.493Z,712.00
2018-05-13T07:00:34.510Z,724.00
2018-05-13T07:01:34.344Z,744.00
2018-05-13T07:02:34.271Z,760.00
2018-05-13T07:03:34.324Z,776.00
2018-05-13T07:04:34.122Z,792.00
2018-05-13T07:05:34.056Z,808.00
2018-05-13T07:06:34.040Z,828.00
2018-05-13T07:07:33.913Z,848.00
2018-05-13T07:08:33.837Z,872.00
2018-05-13T07:09:33.854Z,900.00
2018-05-13T07:10:33.693Z,924.00
2018-05-13T07:11:33.621Z,960.00
2018-05-13T07:12:33.672Z,992.00
2018-05-13T07:13:33.475Z,1028.00
2018-05-13T07:14:33.405Z,1068.00
2018-05-13T07:15:33.382Z,1104.00
2018-05-13T07:16:33.351Z,1148.00
2018-05-13T07:17:33.188Z,1204.00
2018-05-13T07:18:33.198Z,1256.00
2018-05-13T07:19:33.045Z,1312.00
2018-05-13T07:20:32.973Z,1364.00
2018-05-13T07:21:33.024Z,1428.00
2018-05-13T07:22:32.828Z,1492.00
2018-05-13T07:23:32.755Z,1544.00
2018-05-13T07:24:32.733Z,1612.00
2018-05-13T07:25:32.616Z,1668.00
2018-05-13T07:26:32.539Z,1740.00
2018-05-13T07:27:32.547Z,1796.00
2018-05-13T07:28:32.402Z,1860.00
2018-05-13T07:29:32.326Z,1896.00
2018-05-13T07:30:32.365Z,1952.00
2018-05-13T07:31:32.185Z,2008.00
2018-05-13T07:32:32.116Z,2080.00
2018-05-13T07:33:33.111Z,2092.00
2018-05-13T07:34:31.975Z,2156.00
2018-05-13T07:35:31.896Z,2192.00
2018-05-13T07:36:31.891Z,2240.00
2018-05-13T07:37:31.761Z,2252.00
2018-05-13T07:38:31.686Z,2284.00
2018-05-13T07:39:31.616Z,2348.00
2018-05-13T07:40:31.614Z,2388.00
2018-05-13T07:41:31.476Z,2468.00
2018-05-13T07:42:31.523Z,2508.00
2018-05-13T07:43:31.430Z,2472.00
2018-05-13T07:44:31.332Z,2532.00
2018-05-13T07:45:31.191Z,2528.00
2018-05-13T07:46:31.134Z,2580.00
2018-05-13T07:47:31.059Z,2656.00
2018-05-13T07:48:31.057Z,2688.00
2018-05-13T07:49:30.919Z,2600.00
2018-05-13T07:50:30.846Z,2680.00
2018-05-13T07:51:30.871Z,2760.00
2018-05-13T07:52:30.697Z,2752.00
2018-05-13T07:53:30.626Z,2808.00
2018-05-13T07:54:30.579Z,2840.00
2018-05-13T07:55:30.507Z,2844.00
2018-05-13T07:56:30.422Z,2868.00
2018-05-13T07:57:30.394Z,2872.00
2018-05-13T07:58:30.288Z,2904.00
2018-05-13T07:59:30.209Z,2868.00
2018-05-13T08:00:30.214Z,2912.00
2018-05-13T08:01:30.073Z,2892.00
2018-05-13T08:02:30.010Z,2916.00
2018-05-13T08:03:29.937Z,2928.00
2018-05-13T08:04:29.945Z,2948.00
2018-05-13T08:05:29.803Z,2920.00
2018-05-13T08:06:29.844Z,2964.00
2018-05-13T08:07:29.658Z,3024.00
2018-05-13T08:08:29.596Z,3004.00
2018-05-13T08:09:29.680Z,3040.00
2018-05-13T08:10:29.455Z,3052.00
2018-05-13T08:11:29.385Z,2976.00
2018-05-13T08:12:29.382Z,3008.00
2018-05-13T08:13:29.245Z,3056.00
2018-05-13T08:14:29.182Z,2996.00
2018-05-13T08:15:29.192Z,3044.00
2018-05-13T08:16:29.045Z,3080.00
2018-05-13T08:17:28.965Z,3048.00
2018-05-13T08:18:28.904Z,3092.00
2018-05-13T08:19:28.946Z,3036.00
2018-05-13T08:20:28.811Z,2996.00
2018-05-13T08:21:29.566Z,3024.00
2018-05-13T08:22:28.623Z,3080.00
2018-05-13T08:23:28.557Z,3080.00
2018-05-13T08:24:28.486Z,3076.00
2018-05-13T08:25:28.541Z,3148.00
2018-05-13T08:26:28.357Z,3200.00
2018-05-13T08:27:28.361Z,3180.00
2018-05-13T08:28:29.250Z,3212.00
2018-05-13T08:29:28.145Z,3220.00
2018-05-13T08:30:28.171Z,3232.00
2018-05-13T08:31:28.018Z,3220.00
2018-05-13T08:32:27.943Z,3228.00
2018-05-13T08:33:27.994Z,3248.00
2018-05-13T08:34:27.833Z,3220.00
2018-05-13T08:35:27.744Z,3236.00
2018-05-13T08:36:27.811Z,3204.00
2018-05-13T08:37:27.601Z,3220.00
2018-05-13T08:38:27.547Z,3216.00
2018-05-13T08:39:27.616Z,3220.00
2018-05-13T08:40:27.413Z,3216.00
2018-05-13T08:41:27.342Z,3220.00
2018-05-13T08:42:27.433Z,3244.00
2018-05-13T08:43:27.206Z,3264.00
2018-05-13T08:44:27.134Z,3232.00
2018-05-13T08:45:27.145Z,3264.00
2018-05-13T08:46:27.003Z,3248.00
2018-05-13T08:47:26.946Z,3252.00
2018-05-13T08:48:26.995Z,3280.00
2018-05-13T08:49:26.814Z,3252.00
2018-05-13T08:50:26.752Z,3232.00
2018-05-13T08:51:26.797Z,3248.00
2018-05-13T08:52:26.609Z,3272.00
2018-05-13T08:53:26.552Z,3296.00
2018-05-13T08:54:26.496Z,3316.00
2018-05-13T08:55:26.426Z,3328.00
2018-05-13T08:56:26.352Z,3316.00
2018-05-13T08:57:26.433Z,3300.00
2018-05-13T08:58:26.197Z,3300.00
2018-05-13T08:59:26.223Z,3272.00
2018-05-13T09:00:26.081Z,3292.00
2018-05-13T09:01:26.042Z,3244.00
2018-05-13T09:02:26.048Z,3264.00
2018-05-13T09:03:25.877Z,3264.00
2018-05-13T09:04:26.889Z,3248.00
2018-05-13T09:05:25.859Z,3232.00
2018-05-13T09:06:25.669Z,3236.00
2018-05-13T09:07:25.781Z,3192.00
2018-05-13T09:08:26.381Z,3180.00
2018-05-13T09:09:25.517Z,3172.00
2018-05-13T09:10:27.541Z,3192.00
2018-05-13T09:11:25.357Z,3200.00
2018-05-13T09:12:26.209Z,3184.00
2018-05-13T09:13:25.237Z,3196.00
2018-05-13T09:14:25.148Z,3196.00
2018-05-13T09:15:25.208Z,3204.00
2018-05-13T09:16:25.012Z,3212.00
2018-05-13T09:17:24.957Z,3188.00
2018-05-13T09:18:24.895Z,3164.00
2018-05-13T09:19:24.839Z,3116.00
2018-05-13T09:20:24.752Z,3064.00
2018-05-13T09:21:24.682Z,3096.00
2018-05-13T09:22:24.617Z,3088.00
2018-05-13T09:23:24.560Z,3100.00
2018-05-13T09:24:24.562Z,3128.00
2018-05-13T09:25:24.431Z,3124.00
2018-05-13T09:26:24.364Z,3160.00
2018-05-13T09:27:24.384Z,3164.00
2018-05-13T09:28:24.236Z,3152.00
2018-05-13T09:29:24.301Z,3132.00
2018-05-13T09:30:24.103Z,3076.00
2018-05-13T09:31:24.203Z,3100.00
2018-05-13T09:32:24.102Z,3076.00
2018-05-13T09:33:23.901Z,3088.00
2018-05-13T09:34:23.927Z,3076.00
2018-05-13T09:35:23.773Z,3100.00
2018-05-13T09:36:23.828Z,3124.00
2018-05-13T09:37:23.645Z,3124.00
2018-05-13T09:38:23.581Z,3100.00
2018-05-13T09:39:23.677Z,2260.00
2018-05-13T09:40:23.468Z,1692.00
2018-05-13T09:41:23.379Z,672.00
2018-05-13T09:42:23.463Z,692.00
2018-05-13T09:43:23.262Z,3116.00
2018-05-13T09:44:24.285Z,3068.00
2018-05-13T09:45:23.120Z,3076.00
2018-05-13T09:46:23.084Z,3056.00
2018-05-13T09:47:23.005Z,3044.00
2018-05-13T09:48:22.940Z,3004.00
2018-05-13T09:49:23.953Z,2992.00
2018-05-13T09:50:22.907Z,2996.00
2018-05-13T09:51:22.853Z,2948.00
2018-05-13T09:52:22.812Z,2944.00
2018-05-13T09:53:22.739Z,2972.00
2018-05-13T09:54:22.528Z,2976.00
2018-05-13T09:55:22.620Z,2964.00
2018-05-13T09:56:22.433Z,2960.00
2018-05-13T09:57:22.335Z,2928.00
2018-05-13T09:58:22.344Z,2952.00
2018-05-13T09:59:22.218Z,2932.00
2018-05-13T10:00:22.262Z,2900.00
2018-05-13T10:01:22.085Z,2880.00
2018-05-13T10:02:22.030Z,2884.00
2018-05-13T10:03:21.957Z,2920.00
2018-05-13T10:04:21.980Z,2912.00
2018-05-13T10:05:21.986Z,2888.00
2018-05-13T10:06:21.751Z,2888.00
2018-05-13T10:07:21.796Z,2868.00
2018-05-13T10:08:21.787Z,2872.00
2018-05-13T10:09:21.556Z,2928.00
2018-05-13T10:10:21.593Z,2936.00
2018-05-13T10:11:21.503Z,2128.00
2018-05-13T10:12:21.368Z,2880.00
2018-05-13T10:13:21.419Z,2252.00
2018-05-13T10:14:21.327Z,2868.00
2018-05-13T10:15:21.176Z,2884.00
2018-05-13T10:16:21.229Z,2868.00
2018-05-13T10:17:21.140Z,2828.00
2018-05-13T10:18:20.981Z,2852.00
2018-05-13T10:19:21.047Z,2868.00
2018-05-13T10:20:20.853Z,2864.00
2018-05-13T10:21:20.785Z,2904.00
2018-05-13T10:22:20.876Z,2928.00
2018-05-13T10:23:20.673Z,2880.00
2018-05-13T10:24:20.594Z,2908.00
2018-05-13T10:25:20.680Z,2900.00
2018-05-13T10:26:20.587Z,2932.00
2018-05-13T10:27:20.427Z,2936.00
2018-05-13T10:28:20.493Z,2912.00
2018-05-13T10:29:20.403Z,2044.00
2018-05-13T10:30:20.210Z,2856.00
2018-05-13T10:31:20.321Z,2840.00
2018-05-13T10:32:20.231Z,2784.00
2018-05-13T10:33:20.031Z,2768.00
2018-05-13T10:34:20.138Z,2748.00
2018-05-13T10:35:20.040Z,2764.00
2018-05-13T10:36:19.880Z,2800.00
2018-05-13T10:37:19.945Z,2796.00
2018-05-13T10:38:19.850Z,2828.00
2018-05-13T10:39:19.633Z,2808.00
2018-05-13T10:40:19.661Z,2836.00
2018-05-13T10:41:19.669Z,2796.00
2018-05-13T10:42:19.451Z,2792.00
2018-05-13T10:43:19.366Z,2752.00
2018-05-13T10:44:19.322Z,2808.00
2018-05-13T10:45:22.191Z,2820.00
2018-05-13T10:46:19.178Z,2804.00
2018-05-13T10:47:19.122Z,2768.00
2018-05-13T10:48:19.225Z,776.00
2018-05-13T10:49:18.986Z,876.00
2018-05-13T10:50:19.112Z,780.00
2018-05-13T10:51:18.865Z,764.00
2018-05-13T10:52:19.860Z,756.00
2018-05-13T10:53:18.825Z,716.00
2018-05-13T10:54:18.664Z,684.00
2018-05-13T10:55:18.737Z,664.00
2018-05-13T10:59:59.141Z,2728.00
2018-05-13T11:00:59.214Z,2784.00
2018-05-13T11:02:55.383Z,2780.00
2018-05-13T11:03:55.441Z,2756.00
2018-05-13T11:04:55.348Z,2760.00
2018-05-13T11:05:55.174Z,2836.00
2018-05-13T11:06:55.113Z,1428.00
2018-05-13T11:07:55.161Z,1012.00
2018-05-13T11:08:54.985Z,2748.00
2018-05-13T11:09:54.973Z,2756.00
2018-05-13T11:10:54.857Z,2712.00
2018-05-13T11:11:54.881Z,2668.00
2018-05-13T11:12:54.737Z,1004.00
2018-05-13T11:13:54.793Z,796.00
2018-05-13T11:14:54.603Z,804.00
2018-05-13T11:15:54.704Z,800.00
2018-05-13T11:16:54.473Z,804.00
2018-05-13T11:17:54.521Z,804.00
2018-05-13T11:18:54.347Z,808.00
2018-05-13T11:19:54.423Z,864.00
2018-05-13T11:20:54.221Z,820.00
2018-05-13T11:21:54.340Z,820.00
2018-05-13T11:22:54.095Z,868.00
2018-05-13T11:23:54.146Z,2540.00
2018-05-13T11:24:53.971Z,2652.00
2018-05-13T11:25:54.061Z,2664.00
2018-05-13T11:26:53.907Z,2656.00
2018-05-13T11:27:53.868Z,2632.00
2018-05-13T11:28:53.709Z,2556.00
2018-05-13T11:29:53.705Z,2556.00
2018-05-13T11:30:53.580Z,2500.00
2018-05-13T11:31:53.690Z,2000.00
2018-05-13T11:32:53.456Z,2544.00
2018-05-13T11:33:53.610Z,2540.00
2018-05-13T11:34:53.323Z,2536.00
2018-05-13T11:35:53.412Z,2524.00
2018-05-13T11:36:53.198Z,2552.00
2018-05-13T11:37:53.324Z,2548.00
2018-05-13T11:38:53.071Z,2372.00
2018-05-13T11:39:53.136Z,2452.00
2018-05-13T11:40:52.945Z,2488.00
2018-05-13T11:41:53.043Z,2520.00
2018-05-13T11:42:52.818Z,2452.00
2018-05-13T11:43:52.861Z,2032.00
2018-05-13T11:44:52.689Z,2492.00
2018-05-13T11:45:53.685Z,2240.00
2018-05-13T11:46:52.564Z,1964.00
2018-05-13T11:47:52.677Z,2500.00
2018-05-13T11:48:52.434Z,2500.00
2018-05-13T11:49:52.483Z,2576.00
2018-05-13T11:50:52.314Z,2676.00
2018-05-13T11:51:52.393Z,2728.00
2018-05-13T11:52:52.186Z,2776.00
2018-05-13T11:53:52.306Z,2820.00
2018-05-13T11:54:52.061Z,2816.00
2018-05-13T11:55:52.116Z,2812.00
2018-05-13T11:56:51.930Z,2788.00
2018-05-13T11:57:51.923Z,2784.00
2018-05-13T11:58:51.804Z,1728.00
2018-05-13T11:59:51.838Z,2564.00
2018-05-13T12:00:51.677Z,2640.00
2018-05-13T12:01:51.748Z,1616.00
2018-05-13T12:02:51.550Z,2612.00
2018-05-13T12:03:51.662Z,2596.00
2018-05-13T12:04:51.422Z,2536.00
2018-05-13T12:05:51.467Z,2548.00
2018-05-13T12:06:51.298Z,2528.00
2018-05-13T12:07:51.381Z,2512.00
2018-05-13T12:08:51.173Z,1488.00
2018-05-13T12:09:51.290Z,736.00
2018-05-13T12:10:51.049Z,724.00
2018-05-13T12:11:51.102Z,724.00
2018-05-13T12:12:50.920Z,704.00
2018-05-13T12:13:51.013Z,676.00
2018-05-13T12:14:50.875Z,652.00
2018-05-13T12:15:50.838Z,648.00
2018-05-13T12:16:50.666Z,652.00
2018-05-13T12:17:50.648Z,652.00
2018-05-13T12:18:50.539Z,660.00
2018-05-13T12:19:50.573Z,680.00
2018-05-13T12:20:50.413Z,716.00
2018-05-13T12:21:50.368Z,776.00
2018-05-13T12:22:50.285Z,852.00
2018-05-13T12:23:50.279Z,2580.00
2018-05-13T12:24:50.156Z,2584.00
2018-05-13T12:25:50.101Z,2592.00
2018-05-13T12:26:50.033Z,2628.00
2018-05-13T12:27:49.997Z,2632.00
2018-05-13T12:28:49.939Z,2644.00
2018-05-13T12:29:49.912Z,2680.00
2018-05-13T12:30:49.775Z,2692.00
2018-05-13T12:31:49.820Z,2660.00
2018-05-13T12:32:49.654Z,2660.00
2018-05-13T12:33:49.636Z,2660.00
2018-05-13T12:34:49.517Z,2708.00
2018-05-13T12:35:49.542Z,2660.00
2018-05-13T12:36:49.397Z,2636.00